sensor_id;sensor_type;location;lat;lon;timestamp;temperature;humidity
4429;DHT22;2227;47.810;8.810;2023-05-01T03:47:56;13.60;99.90
4429;DHT22;2227;47.810;8.810;2023-05-01T03:50:24;13.60;99.90
4429;DHT22;2227;47.810;8.810;2023-05-01T03:52:50;13.60;99.90
4429;DHT22;2227;47.810;8.810;2023-05-01T03:55:17;13.40;99.90
4429;DHT22;2227;47.810;8.810;2023-05-01T03:57:44;13.20;99.90
4429;DHT22;2227;47.810;8.810;2023-05-01T04:00:12;13.30;99.90
4429;DHT22;2227;47.810;8.810;2023-05-01T04:02:39;13.40;99.90
4429;DHT22;2227;47.810;8.810;2023-05-01T04:05:06;13.40;99.90
4429;DHT22;2227;47.810;8.810;2023-05-01T04:07:33;13.40;99.90
4429;DHT22;2227;47.810;8.810;2023-05-01T04:10:00;13.40;99.90
4429;DHT22;2227;47.810;8.810;2023-05-01T04:12:27;13.30;99.90
4429;DHT22;2227;47.810;8.810;2023-05-01T04:14:53;13.20;99.90
4429;DHT22;2227;47.810;8.810;2023-05-01T04:17:20;13.30;99.90
4429;DHT22;2227;47.810;8.810;2023-05-01T04:19:47;13.30;99.90
4429;DHT22;2227;47.810;8.810;2023-05-01T04:22:14;13.20;99.90
4429;DHT22;2227;47.810;8.810;2023-05-01T04:24:41;13.30;99.90
4429;DHT22;2227;47.810;8.810;2023-05-01T04:27:08;13.10;99.90
4429;DHT22;2227;47.810;8.810;2023-05-01T04:29:34;13.20;99.90
4429;DHT22;2227;47.810;8.810;2023-05-01T04:32:01;13.30;99.90
4429;DHT22;2227;47.810;8.810;2023-05-01T04:34:28;13.30;99.90
4429;DHT22;2227;47.810;8.810;2023-05-01T04:36:55;13.30;99.90
4429;DHT22;2227;47.810;8.810;2023-05-01T04:39:25;13.30;99.90
4429;DHT22;2227;47.810;8.810;2023-05-01T04:41:52;13.30;99.90
4429;DHT22;2227;47.810;8.810;2023-05-01T04:44:18;13.30;99.90
4429;DHT22;2227;47.810;8.810;2023-05-01T04:46:46;13.20;99.90
4429;DHT22;2227;47.810;8.810;2023-05-01T04:49:12;13.20;99.90
4429;DHT22;2227;47.810;8.810;2023-05-01T04:51:39;13.00;99.90
4429;DHT22;2227;47.810;8.810;2023-05-01T04:54:06;13.00;99.90
4429;DHT22;2227;47.810;8.810;2023-05-01T04:56:33;12.90;99.90
4429;DHT22;2227;47.810;8.810;2023-05-01T04:59:00;13.00;99.90
4429;DHT22;2227;47.810;8.810;2023-05-01T05:01:27;13.10;99.90
4429;DHT22;2227;47.810;8.810;2023-05-01T05:03:53;13.20;99.90
4429;DHT22;2227;47.810;8.810;2023-05-01T05:06:20;13.30;99.90
4429;DHT22;2227;47.810;8.810;2023-05-01T05:08:48;13.40;99.90
4429;DHT22;2227;47.810;8.810;2023-05-01T05:11:18;13.40;99.90
4429;DHT22;2227;47.810;8.810;2023-05-01T05:13:45;13.40;99.90
4429;DHT22;2227;47.810;8.810;2023-05-01T05:16:11;13.40;99.90
4429;DHT22;2227;47.810;8.810;2023-05-01T05:18:38;13.40;99.90
4429;DHT22;2227;47.810;8.810;2023-05-01T05:21:06;13.40;99.90
4429;DHT22;2227;47.810;8.810;2023-05-01T05:23:34;13.50;99.90
4429;DHT22;2227;47.810;8.810;2023-05-01T05:26:00;13.50;99.90
4429;DHT22;2227;47.810;8.810;2023-05-01T05:28:28;13.50;99.90
4429;DHT22;2227;47.810;8.810;2023-05-01T05:30:55;13.40;99.90
4429;DHT22;2227;47.810;8.810;2023-05-01T05:33:22;13.50;99.90
4429;DHT22;2227;47.810;8.810;2023-05-01T05:35:51;13.50;99.90
4429;DHT22;2227;47.810;8.810;2023-05-01T05:38:18;13.50;99.90
4429;DHT22;2227;47.810;8.810;2023-05-01T05:40:44;13.50;99.90
4429;DHT22;2227;47.810;8.810;2023-05-01T05:43:11;13.50;99.90
4429;DHT22;2227;47.810;8.810;2023-05-01T05:45:38;13.50;99.90
4429;DHT22;2227;47.810;8.810;2023-05-01T05:48:05;13.50;99.90
4429;DHT22;2227;47.810;8.810;2023-05-01T05:50:32;13.50;99.90
4429;DHT22;2227;47.810;8.810;2023-05-01T05:52:59;13.50;99.90
4429;DHT22;2227;47.810;8.810;2023-05-01T05:55:25;13.40;99.90
4429;DHT22;2227;47.810;8.810;2023-05-01T05:57:53;13.50;99.90
4429;DHT22;2227;47.810;8.810;2023-05-01T06:00:20;13.60;99.90
4429;DHT22;2227;47.810;8.810;2023-05-01T06:02:46;13.70;99.90
4429;DHT22;2227;47.810;8.810;2023-05-01T06:05:14;13.80;99.90
4429;DHT22;2227;47.810;8.810;2023-05-01T06:07:40;13.90;99.90
4429;DHT22;2227;47.810;8.810;2023-05-01T06:10:08;14.00;99.90
4429;DHT22;2227;47.810;8.810;2023-05-01T06:12:35;14.00;99.90
4429;DHT22;2227;47.810;8.810;2023-05-01T06:15:07;14.10;99.90
4429;DHT22;2227;47.810;8.810;2023-05-01T06:17:34;14.20;99.90
4429;DHT22;2227;47.810;8.810;2023-05-01T06:20:03;14.30;99.90
4429;DHT22;2227;47.810;8.810;2023-05-01T06:22:31;14.30;99.90
4429;DHT22;2227;47.810;8.810;2023-05-01T06:24:58;14.50;99.90
4429;DHT22;2227;47.810;8.810;2023-05-01T06:27:25;14.50;99.90
4429;DHT22;2227;47.810;8.810;2023-05-01T06:29:51;14.50;99.90
4429;DHT22;2227;47.810;8.810;2023-05-01T06:32:18;14.50;99.90
4429;DHT22;2227;47.810;8.810;2023-05-01T06:34:44;14.50;99.90
4429;DHT22;2227;47.810;8.810;2023-05-01T06:37:11;14.60;99.90
4429;DHT22;2227;47.810;8.810;2023-05-01T06:39:38;14.80;99.90
4429;DHT22;2227;47.810;8.810;2023-05-01T06:42:05;14.90;99.90
4429;DHT22;2227;47.810;8.810;2023-05-01T06:44:33;15.00;99.90
4429;DHT22;2227;47.810;8.810;2023-05-01T06:46:59;15.20;99.90
4429;DHT22;2227;47.810;8.810;2023-05-01T06:49:27;15.20;99.90
4429;DHT22;2227;47.810;8.810;2023-05-01T06:51:54;15.30;99.90
4429;DHT22;2227;47.810;8.810;2023-05-01T06:54:21;15.40;99.90
4429;DHT22;2227;47.810;8.810;2023-05-01T06:56:48;15.40;99.90
4429;DHT22;2227;47.810;8.810;2023-05-01T06:59:14;15.50;99.90
4429;DHT22;2227;47.810;8.810;2023-05-01T07:01:41;15.40;99.90
4429;DHT22;2227;47.810;8.810;2023-05-01T07:04:08;15.30;99.90
4429;DHT22;2227;47.810;8.810;2023-05-01T07:06:34;15.10;99.90
4429;DHT22;2227;47.810;8.810;2023-05-01T07:09:02;15.00;99.90
4429;DHT22;2227;47.810;8.810;2023-05-01T07:11:29;14.80;99.90
4429;DHT22;2227;47.810;8.810;2023-05-01T07:13:56;14.70;99.90
4429;DHT22;2227;47.810;8.810;2023-05-01T07:16:23;14.30;99.90
4429;DHT22;2227;47.810;8.810;2023-05-01T07:18:50;14.10;99.90
4429;DHT22;2227;47.810;8.810;2023-05-01T07:21:16;14.00;99.90
4429;DHT22;2227;47.810;8.810;2023-05-01T07:23:43;13.90;99.90
4429;DHT22;2227;47.810;8.810;2023-05-01T07:26:10;14.00;99.90
4429;DHT22;2227;47.810;8.810;2023-05-01T07:28:37;14.00;99.90
4429;DHT22;2227;47.810;8.810;2023-05-01T07:31:04;13.90;99.90
4429;DHT22;2227;47.810;8.810;2023-05-01T07:33:30;13.80;99.90
4429;DHT22;2227;47.810;8.810;2023-05-01T07:35:57;13.80;99.90
4429;DHT22;2227;47.810;8.810;2023-05-01T07:38:24;13.60;99.90
4429;DHT22;2227;47.810;8.810;2023-05-01T07:40:53;13.60;99.90
4429;DHT22;2227;47.810;8.810;2023-05-01T07:43:21;13.70;99.90
4429;DHT22;2227;47.810;8.810;2023-05-01T07:45:55;13.70;99.90
4429;DHT22;2227;47.810;8.810;2023-05-01T07:48:23;13.80;99.90
4429;DHT22;2227;47.810;8.810;2023-05-01T07:50:50;13.90;99.90
4429;DHT22;2227;47.810;8.810;2023-05-01T07:53:17;14.00;99.90
4429;DHT22;2227;47.810;8.810;2023-05-01T07:55:44;14.20;99.90
4429;DHT22;2227;47.810;8.810;2023-05-01T07:58:10;14.00;99.90
4429;DHT22;2227;47.810;8.810;2023-05-01T08:00:37;13.90;99.90
4429;DHT22;2227;47.810;8.810;2023-05-01T08:03:04;13.90;99.90
4429;DHT22;2227;47.810;8.810;2023-05-01T08:05:30;14.00;99.90
4429;DHT22;2227;47.810;8.810;2023-05-01T08:07:57;14.10;99.90
4429;DHT22;2227;47.810;8.810;2023-05-01T08:10:24;14.20;99.90
4429;DHT22;2227;47.810;8.810;2023-05-01T08:12:51;14.40;99.90
4429;DHT22;2227;47.810;8.810;2023-05-01T08:15:18;14.50;99.90
4429;DHT22;2227;47.810;8.810;2023-05-01T08:17:46;14.70;99.90
4429;DHT22;2227;47.810;8.810;2023-05-01T08:20:13;15.10;99.90
4429;DHT22;2227;47.810;8.810;2023-05-01T08:22:40;15.30;99.90
4429;DHT22;2227;47.810;8.810;2023-05-01T08:25:07;15.40;99.90
4429;DHT22;2227;47.810;8.810;2023-05-01T08:27:34;15.60;99.90
4429;DHT22;2227;47.810;8.810;2023-05-01T08:30:00;15.70;99.90
4429;DHT22;2227;47.810;8.810;2023-05-01T08:32:27;15.70;99.90
4429;DHT22;2227;47.810;8.810;2023-05-01T08:34:54;15.70;99.90
4429;DHT22;2227;47.810;8.810;2023-05-01T08:37:20;15.90;99.90
4429;DHT22;2227;47.810;8.810;2023-05-01T08:39:47;16.10;99.90
4429;DHT22;2227;47.810;8.810;2023-05-01T08:42:14;16.10;99.90
4429;DHT22;2227;47.810;8.810;2023-05-01T08:44:42;16.10;99.90
4429;DHT22;2227;47.810;8.810;2023-05-01T08:47:14;15.80;99.90
4429;DHT22;2227;47.810;8.810;2023-05-01T08:49:42;15.90;99.90
4429;DHT22;2227;47.810;8.810;2023-05-01T08:52:11;15.90;99.90
4429;DHT22;2227;47.810;8.810;2023-05-01T08:54:41;15.80;99.90
4429;DHT22;2227;47.810;8.810;2023-05-01T08:57:10;15.50;99.90
4429;DHT22;2227;47.810;8.810;2023-05-01T08:59:38;15.20;99.90
4429;DHT22;2227;47.810;8.810;2023-05-01T09:02:07;14.80;99.90
4429;DHT22;2227;47.810;8.810;2023-05-01T09:04:37;14.50;99.90
4429;DHT22;2227;47.810;8.810;2023-05-01T09:07:04;14.60;99.90
4429;DHT22;2227;47.810;8.810;2023-05-01T09:09:31;14.60;99.90
4429;DHT22;2227;47.810;8.810;2023-05-01T09:12:26;14.30;99.90
4429;DHT22;2227;47.810;8.810;2023-05-01T09:14:55;14.10;99.90
4429;DHT22;2227;47.810;8.810;2023-05-01T09:17:22;14.20;99.90
4429;DHT22;2227;47.810;8.810;2023-05-01T09:19:50;14.30;99.90
4429;DHT22;2227;47.810;8.810;2023-05-01T09:22:18;14.20;99.90
4429;DHT22;2227;47.810;8.810;2023-05-01T09:24:45;14.00;99.90
4429;DHT22;2227;47.810;8.810;2023-05-01T09:27:13;14.00;99.90
4429;DHT22;2227;47.810;8.810;2023-05-01T09:29:44;14.20;99.90
4429;DHT22;2227;47.810;8.810;2023-05-01T09:34:43;14.60;99.90
4429;DHT22;2227;47.810;8.810;2023-05-01T09:37:12;14.60;99.90
4429;DHT22;2227;47.810;8.810;2023-05-01T09:39:39;14.70;99.90
4429;DHT22;2227;47.810;8.810;2023-05-01T09:42:06;15.10;99.90
4429;DHT22;2227;47.810;8.810;2023-05-01T09:44:39;15.60;99.90
4429;DHT22;2227;47.810;8.810;2023-05-01T09:47:08;15.80;99.90
4429;DHT22;2227;47.810;8.810;2023-05-01T09:49:43;15.90;99.90
4429;DHT22;2227;47.810;8.810;2023-05-01T09:52:11;15.90;99.90
4429;DHT22;2227;47.810;8.810;2023-05-01T09:54:37;16.00;99.90
4429;DHT22;2227;47.810;8.810;2023-05-01T09:57:04;15.60;99.90
4429;DHT22;2227;47.810;8.810;2023-05-01T09:59:31;15.30;99.90
4429;DHT22;2227;47.810;8.810;2023-05-01T10:02:00;15.30;99.90
4429;DHT22;2227;47.810;8.810;2023-05-01T10:04:31;15.40;99.90
4429;DHT22;2227;47.810;8.810;2023-05-01T10:07:13;15.60;99.90
4429;DHT22;2227;47.810;8.810;2023-05-01T10:09:40;15.80;99.90
4429;DHT22;2227;47.810;8.810;2023-05-01T10:12:07;15.70;99.90
4429;DHT22;2227;47.810;8.810;2023-05-01T10:14:51;15.50;99.90
4429;DHT22;2227;47.810;8.810;2023-05-01T10:17:19;15.40;99.90
4429;DHT22;2227;47.810;8.810;2023-05-01T10:19:47;15.30;99.90
4429;DHT22;2227;47.810;8.810;2023-05-01T10:22:14;15.30;99.90
4429;DHT22;2227;47.810;8.810;2023-05-01T10:24:42;15.00;99.90
4429;DHT22;2227;47.810;8.810;2023-05-01T10:27:11;15.10;99.90
4429;DHT22;2227;47.810;8.810;2023-05-01T10:29:41;15.10;99.90
4429;DHT22;2227;47.810;8.810;2023-05-01T10:32:10;15.20;99.90
4429;DHT22;2227;47.810;8.810;2023-05-01T10:34:41;15.60;99.90
4429;DHT22;2227;47.810;8.810;2023-05-01T10:37:12;15.80;99.90
4429;DHT22;2227;47.810;8.810;2023-05-01T10:39:39;15.70;99.90
4429;DHT22;2227;47.810;8.810;2023-05-01T10:42:09;15.70;99.90
4429;DHT22;2227;47.810;8.810;2023-05-01T10:44:40;15.80;99.90
4429;DHT22;2227;47.810;8.810;2023-05-01T10:50:07;16.20;99.90
4429;DHT22;2227;47.810;8.810;2023-05-01T10:55:46;15.90;99.90
4429;DHT22;2227;47.810;8.810;2023-05-01T11:01:34;16.20;99.90
4429;DHT22;2227;47.810;8.810;2023-05-01T11:09:41;15.90;99.90
4429;DHT22;2227;47.810;8.810;2023-05-01T11:12:09;16.20;99.90
4429;DHT22;2227;47.810;8.810;2023-05-01T11:20:44;16.40;99.90
4429;DHT22;2227;47.810;8.810;2023-05-01T11:22:59;16.50;99.90
4429;DHT22;2227;47.810;8.810;2023-05-01T11:25:27;16.90;99.90
4429;DHT22;2227;47.810;8.810;2023-05-01T11:27:58;17.00;99.90
4429;DHT22;2227;47.810;8.810;2023-05-01T11:30:25;17.10;99.90
4429;DHT22;2227;47.810;8.810;2023-05-01T11:32:51;16.90;99.90
4429;DHT22;2227;47.810;8.810;2023-05-01T11:35:21;17.30;99.90
4429;DHT22;2227;47.810;8.810;2023-05-01T11:37:49;17.60;99.90
4429;DHT22;2227;47.810;8.810;2023-05-01T11:40:29;17.50;99.90
4429;DHT22;2227;47.810;8.810;2023-05-01T11:43:07;16.90;99.90
4429;DHT22;2227;47.810;8.810;2023-05-01T11:45:35;16.70;99.90
4429;DHT22;2227;47.810;8.810;2023-05-01T11:48:03;16.50;99.90
4429;DHT22;2227;47.810;8.810;2023-05-01T11:50:37;16.70;99.90
4429;DHT22;2227;47.810;8.810;2023-05-01T11:53:10;16.60;99.90
4429;DHT22;2227;47.810;8.810;2023-05-01T11:55:37;16.50;99.90
4429;DHT22;2227;47.810;8.810;2023-05-01T11:58:05;16.40;99.90
4429;DHT22;2227;47.810;8.810;2023-05-01T12:00:34;16.20;99.90
4429;DHT22;2227;47.810;8.810;2023-05-01T12:03:10;16.40;99.90
4429;DHT22;2227;47.810;8.810;2023-05-01T12:05:39;16.50;99.90
4429;DHT22;2227;47.810;8.810;2023-05-01T12:08:15;16.50;99.90
4429;DHT22;2227;47.810;8.810;2023-05-01T12:10:55;16.40;99.90
4429;DHT22;2227;47.810;8.810;2023-05-01T12:13:23;16.50;99.90
4429;DHT22;2227;47.810;8.810;2023-05-01T12:15:52;16.40;99.90
4429;DHT22;2227;47.810;8.810;2023-05-01T12:18:20;16.40;99.90
4429;DHT22;2227;47.810;8.810;2023-05-01T12:20:49;16.80;99.90
4429;DHT22;2227;47.810;8.810;2023-05-01T12:23:19;17.00;99.90
4429;DHT22;2227;47.810;8.810;2023-05-01T12:25:46;17.00;99.90
4429;DHT22;2227;47.810;8.810;2023-05-01T12:28:16;17.10;99.90
4429;DHT22;2227;47.810;8.810;2023-05-01T12:30:46;17.30;99.90
4429;DHT22;2227;47.810;8.810;2023-05-01T12:33:21;17.00;99.90
4429;DHT22;2227;47.810;8.810;2023-05-01T12:35:49;17.00;99.90
4429;DHT22;2227;47.810;8.810;2023-05-01T12:38:20;16.90;99.90
4429;DHT22;2227;47.810;8.810;2023-05-01T12:40:55;16.80;99.90
4429;DHT22;2227;47.810;8.810;2023-05-01T12:43:32;16.60;99.90
4429;DHT22;2227;47.810;8.810;2023-05-01T12:46:00;16.70;99.90
4429;DHT22;2227;47.810;8.810;2023-05-01T12:48:29;16.90;99.90
4429;DHT22;2227;47.810;8.810;2023-05-01T12:50:56;17.20;99.90
4429;DHT22;2227;47.810;8.810;2023-05-01T12:53:24;17.30;99.90
4429;DHT22;2227;47.810;8.810;2023-05-01T12:55:56;17.40;99.90
4429;DHT22;2227;47.810;8.810;2023-05-01T12:58:23;17.70;99.90
4429;DHT22;2227;47.810;8.810;2023-05-01T13:01:00;17.90;99.90
4429;DHT22;2227;47.810;8.810;2023-05-01T13:03:28;18.10;99.90
4429;DHT22;2227;47.810;8.810;2023-05-01T13:05:58;18.40;99.90
4429;DHT22;2227;47.810;8.810;2023-05-01T13:08:31;18.60;99.90
4429;DHT22;2227;47.810;8.810;2023-05-01T13:11:00;18.10;99.90
4429;DHT22;2227;47.810;8.810;2023-05-01T13:13:33;18.30;99.90
4429;DHT22;2227;47.810;8.810;2023-05-01T13:16:26;18.70;99.90
4429;DHT22;2227;47.810;8.810;2023-05-01T13:18:53;18.40;99.90
4429;DHT22;2227;47.810;8.810;2023-05-01T13:21:21;17.70;99.90
4429;DHT22;2227;47.810;8.810;2023-05-01T13:23:55;17.70;99.90
4429;DHT22;2227;47.810;8.810;2023-05-01T13:26:30;17.50;99.90
4429;DHT22;2227;47.810;8.810;2023-05-01T13:29:00;17.30;99.90
4429;DHT22;2227;47.810;8.810;2023-05-01T13:31:27;17.50;99.90
4429;DHT22;2227;47.810;8.810;2023-05-01T13:33:56;17.50;99.90
4429;DHT22;2227;47.810;8.810;2023-05-01T13:36:23;17.20;99.90
4429;DHT22;2227;47.810;8.810;2023-05-01T13:38:54;17.20;99.90
4429;DHT22;2227;47.810;8.810;2023-05-01T13:41:24;17.50;99.90
4429;DHT22;2227;47.810;8.810;2023-05-01T13:43:55;17.50;99.90
4429;DHT22;2227;47.810;8.810;2023-05-01T13:46:24;17.70;99.90
4429;DHT22;2227;47.810;8.810;2023-05-01T13:48:52;17.70;99.90
4429;DHT22;2227;47.810;8.810;2023-05-01T13:51:23;17.60;99.90
4429;DHT22;2227;47.810;8.810;2023-05-01T13:53:50;17.40;99.90
4429;DHT22;2227;47.810;8.810;2023-05-01T13:56:19;17.20;99.90
4429;DHT22;2227;47.810;8.810;2023-05-01T13:58:47;16.90;99.90
4429;DHT22;2227;47.810;8.810;2023-05-01T14:01:15;17.00;99.90
4429;DHT22;2227;47.810;8.810;2023-05-01T14:03:44;16.90;99.90
4429;DHT22;2227;47.810;8.810;2023-05-01T14:06:15;16.90;99.90
4429;DHT22;2227;47.810;8.810;2023-05-01T14:08:43;16.70;99.90
4429;DHT22;2227;47.810;8.810;2023-05-01T14:11:11;16.60;99.90
4429;DHT22;2227;47.810;8.810;2023-05-01T14:13:40;16.50;99.90
4429;DHT22;2227;47.810;8.810;2023-05-01T14:16:08;16.00;99.90
4429;DHT22;2227;47.810;8.810;2023-05-01T14:18:45;15.50;99.90
4429;DHT22;2227;47.810;8.810;2023-05-01T14:21:14;15.30;99.90
4429;DHT22;2227;47.810;8.810;2023-05-01T14:23:41;14.90;99.90
4429;DHT22;2227;47.810;8.810;2023-05-01T14:26:08;14.30;99.90
4429;DHT22;2227;47.810;8.810;2023-05-01T14:28:44;13.90;99.90
4429;DHT22;2227;47.810;8.810;2023-05-01T14:33:53;13.40;99.90
4429;DHT22;2227;47.810;8.810;2023-05-01T14:36:19;13.50;99.90
4429;DHT22;2227;47.810;8.810;2023-05-01T14:38:46;13.40;99.90
4429;DHT22;2227;47.810;8.810;2023-05-01T14:41:16;13.70;99.90
4429;DHT22;2227;47.810;8.810;2023-05-01T14:43:44;14.00;99.90
4429;DHT22;2227;47.810;8.810;2023-05-01T14:46:14;14.20;99.90
4429;DHT22;2227;47.810;8.810;2023-05-01T14:48:41;14.30;99.90
4429;DHT22;2227;47.810;8.810;2023-05-01T14:51:10;14.30;99.90
4429;DHT22;2227;47.810;8.810;2023-05-01T14:53:40;14.00;99.90
4429;DHT22;2227;47.810;8.810;2023-05-01T14:56:10;13.80;99.90
4429;DHT22;2227;47.810;8.810;2023-05-01T14:58:37;13.80;99.90
4429;DHT22;2227;47.810;8.810;2023-05-01T15:01:04;13.70;99.90
4429;DHT22;2227;47.810;8.810;2023-05-01T15:03:33;13.60;99.90
4429;DHT22;2227;47.810;8.810;2023-05-01T15:06:01;13.60;99.90
4429;DHT22;2227;47.810;8.810;2023-05-01T15:08:29;13.60;99.90
4429;DHT22;2227;47.810;8.810;2023-05-01T15:10:58;13.50;99.90
4429;DHT22;2227;47.810;8.810;2023-05-01T15:13:24;13.60;99.90
4429;DHT22;2227;47.810;8.810;2023-05-01T15:15:51;13.70;99.90
4429;DHT22;2227;47.810;8.810;2023-05-01T15:18:18;13.90;99.90
4429;DHT22;2227;47.810;8.810;2023-05-01T15:20:45;14.00;99.90
4429;DHT22;2227;47.810;8.810;2023-05-01T15:23:11;14.20;99.90
4429;DHT22;2227;47.810;8.810;2023-05-01T15:25:38;14.40;99.90
4429;DHT22;2227;47.810;8.810;2023-05-01T15:28:05;14.60;99.90
4429;DHT22;2227;47.810;8.810;2023-05-01T15:30:31;14.90;99.90
4429;DHT22;2227;47.810;8.810;2023-05-01T15:32:58;14.80;99.90
4429;DHT22;2227;47.810;8.810;2023-05-01T15:35:25;14.70;99.90
4429;DHT22;2227;47.810;8.810;2023-05-01T15:37:52;14.80;99.90
4429;DHT22;2227;47.810;8.810;2023-05-01T15:40:19;15.00;99.90
4429;DHT22;2227;47.810;8.810;2023-05-01T15:42:46;14.90;99.90
4429;DHT22;2227;47.810;8.810;2023-05-01T15:45:13;15.00;99.90
4429;DHT22;2227;47.810;8.810;2023-05-01T15:47:40;15.10;99.90
4429;DHT22;2227;47.810;8.810;2023-05-01T15:50:09;15.40;99.90
4429;DHT22;2227;47.810;8.810;2023-05-01T15:52:38;15.60;99.90
4429;DHT22;2227;47.810;8.810;2023-05-01T15:55:06;15.70;99.90
4429;DHT22;2227;47.810;8.810;2023-05-01T15:57:33;15.70;99.90
4429;DHT22;2227;47.810;8.810;2023-05-01T16:00:00;15.90;99.90
4429;DHT22;2227;47.810;8.810;2023-05-01T16:02:30;15.90;99.90
4429;DHT22;2227;47.810;8.810;2023-05-01T16:04:58;15.60;99.90
4429;DHT22;2227;47.810;8.810;2023-05-01T16:07:28;15.40;99.90
4429;DHT22;2227;47.810;8.810;2023-05-01T16:09:55;15.10;99.90
4429;DHT22;2227;47.810;8.810;2023-05-01T16:12:23;14.90;99.90
4429;DHT22;2227;47.810;8.810;2023-05-01T16:14:50;14.70;99.90
4429;DHT22;2227;47.810;8.810;2023-05-01T16:17:17;14.50;99.90
4429;DHT22;2227;47.810;8.810;2023-05-01T16:19:45;14.40;99.90
4429;DHT22;2227;47.810;8.810;2023-05-01T16:22:13;14.30;99.90
4429;DHT22;2227;47.810;8.810;2023-05-01T16:24:40;14.70;99.90
4429;DHT22;2227;47.810;8.810;2023-05-01T16:27:10;14.70;99.90
4429;DHT22;2227;47.810;8.810;2023-05-01T16:29:38;14.70;99.90
4429;DHT22;2227;47.810;8.810;2023-05-01T16:32:05;15.10;99.90
4429;DHT22;2227;47.810;8.810;2023-05-01T16:34:32;15.10;99.90
4429;DHT22;2227;47.810;8.810;2023-05-01T16:36:58;15.20;99.90
4429;DHT22;2227;47.810;8.810;2023-05-01T16:39:25;15.50;99.90
4429;DHT22;2227;47.810;8.810;2023-05-01T16:41:53;15.70;99.90
4429;DHT22;2227;47.810;8.810;2023-05-01T16:44:21;15.80;99.90
4429;DHT22;2227;47.810;8.810;2023-05-01T16:46:53;15.80;99.90
4429;DHT22;2227;47.810;8.810;2023-05-01T16:49:21;15.80;99.90
4429;DHT22;2227;47.810;8.810;2023-05-01T16:51:48;15.90;99.90
4429;DHT22;2227;47.810;8.810;2023-05-01T16:54:16;15.80;99.90
4429;DHT22;2227;47.810;8.810;2023-05-01T16:56:43;15.60;99.90
4429;DHT22;2227;47.810;8.810;2023-05-01T16:59:10;15.50;99.90
4429;DHT22;2227;47.810;8.810;2023-05-01T17:01:37;15.30;99.90
4429;DHT22;2227;47.810;8.810;2023-05-01T17:04:03;15.40;99.90
4429;DHT22;2227;47.810;8.810;2023-05-01T17:06:30;15.30;99.90
4429;DHT22;2227;47.810;8.810;2023-05-01T17:08:57;15.30;99.90
4429;DHT22;2227;47.810;8.810;2023-05-01T17:11:24;15.30;99.90
4429;DHT22;2227;47.810;8.810;2023-05-01T17:13:51;15.50;99.90
4429;DHT22;2227;47.810;8.810;2023-05-01T17:16:18;15.60;99.90
4429;DHT22;2227;47.810;8.810;2023-05-01T17:18:45;15.60;99.90
4429;DHT22;2227;47.810;8.810;2023-05-01T17:21:12;15.70;99.90
4429;DHT22;2227;47.810;8.810;2023-05-01T17:23:38;15.70;99.90
4429;DHT22;2227;47.810;8.810;2023-05-01T17:26:05;15.70;99.90
4429;DHT22;2227;47.810;8.810;2023-05-01T17:28:32;15.70;99.90
4429;DHT22;2227;47.810;8.810;2023-05-01T17:30:58;15.70;99.90
4429;DHT22;2227;47.810;8.810;2023-05-01T17:33:28;15.70;99.90
4429;DHT22;2227;47.810;8.810;2023-05-01T17:35:55;15.80;99.90
4429;DHT22;2227;47.810;8.810;2023-05-01T17:38:25;15.80;99.90
4429;DHT22;2227;47.810;8.810;2023-05-01T17:40:52;15.70;99.90
4429;DHT22;2227;47.810;8.810;2023-05-01T17:43:18;15.70;99.90
4429;DHT22;2227;47.810;8.810;2023-05-01T17:45:46;15.70;99.90
4429;DHT22;2227;47.810;8.810;2023-05-01T17:48:13;15.60;99.90
4429;DHT22;2227;47.810;8.810;2023-05-01T17:50:40;15.60;99.90
4429;DHT22;2227;47.810;8.810;2023-05-01T17:53:06;15.50;99.90
4429;DHT22;2227;47.810;8.810;2023-05-01T17:55:34;15.40;99.90
4429;DHT22;2227;47.810;8.810;2023-05-01T17:58:03;15.30;99.90
4429;DHT22;2227;47.810;8.810;2023-05-01T18:00:30;15.30;99.90
4429;DHT22;2227;47.810;8.810;2023-05-01T18:02:57;15.00;99.90
4429;DHT22;2227;47.810;8.810;2023-05-01T18:05:24;14.70;99.90
4429;DHT22;2227;47.810;8.810;2023-05-01T18:07:51;14.50;99.90
4429;DHT22;2227;47.810;8.810;2023-05-01T18:10:18;13.80;99.90
4429;DHT22;2227;47.810;8.810;2023-05-01T18:12:44;13.40;99.90
4429;DHT22;2227;47.810;8.810;2023-05-01T18:15:12;12.90;99.90
4429;DHT22;2227;47.810;8.810;2023-05-01T18:17:44;12.60;99.90
4429;DHT22;2227;47.810;8.810;2023-05-01T18:20:11;12.50;99.90
4429;DHT22;2227;47.810;8.810;2023-05-01T18:22:38;12.70;99.90
4429;DHT22;2227;47.810;8.810;2023-05-01T18:25:05;12.80;99.90
4429;DHT22;2227;47.810;8.810;2023-05-01T18:27:32;12.50;99.90
4429;DHT22;2227;47.810;8.810;2023-05-01T18:29:59;12.70;99.90
4429;DHT22;2227;47.810;8.810;2023-05-01T18:32:26;12.50;99.90
4429;DHT22;2227;47.810;8.810;2023-05-01T18:35:12;12.40;99.90
4429;DHT22;2227;47.810;8.810;2023-05-01T18:37:39;12.20;99.90
4429;DHT22;2227;47.810;8.810;2023-05-01T18:40:08;12.40;99.90
4429;DHT22;2227;47.810;8.810;2023-05-01T18:42:35;12.40;99.90
4429;DHT22;2227;47.810;8.810;2023-05-01T18:45:02;12.30;99.90
4429;DHT22;2227;47.810;8.810;2023-05-01T18:47:29;12.20;99.90
4429;DHT22;2227;47.810;8.810;2023-05-01T18:49:58;12.10;99.90
4429;DHT22;2227;47.810;8.810;2023-05-01T18:52:26;12.10;99.90
4429;DHT22;2227;47.810;8.810;2023-05-01T18:54:53;12.00;99.90
4429;DHT22;2227;47.810;8.810;2023-05-01T18:57:20;11.80;99.90
4429;DHT22;2227;47.810;8.810;2023-05-01T18:59:47;11.80;99.90
4429;DHT22;2227;47.810;8.810;2023-05-01T19:02:14;11.70;99.90
4429;DHT22;2227;47.810;8.810;2023-05-01T19:04:40;11.70;99.90
4429;DHT22;2227;47.810;8.810;2023-05-01T19:07:24;11.60;99.90
4429;DHT22;2227;47.810;8.810;2023-05-01T19:09:51;11.50;99.90
4429;DHT22;2227;47.810;8.810;2023-05-01T19:12:18;11.50;99.90
4429;DHT22;2227;47.810;8.810;2023-05-01T19:14:45;11.50;99.90
4429;DHT22;2227;47.810;8.810;2023-05-01T19:17:11;11.60;99.90
4429;DHT22;2227;47.810;8.810;2023-05-01T19:19:38;11.50;99.90
4429;DHT22;2227;47.810;8.810;2023-05-01T19:22:05;11.50;99.90
4429;DHT22;2227;47.810;8.810;2023-05-01T19:24:32;11.40;99.90
4429;DHT22;2227;47.810;8.810;2023-05-01T19:26:59;11.50;99.90
4429;DHT22;2227;47.810;8.810;2023-05-01T19:29:32;11.40;99.90
4429;DHT22;2227;47.810;8.810;2023-05-01T19:31:58;11.40;99.90
4429;DHT22;2227;47.810;8.810;2023-05-01T19:34:26;11.60;99.90
4429;DHT22;2227;47.810;8.810;2023-05-01T19:36:53;11.80;99.90
4429;DHT22;2227;47.810;8.810;2023-05-01T19:39:23;11.80;99.90
4429;DHT22;2227;47.810;8.810;2023-05-01T19:41:49;12.00;99.90
4429;DHT22;2227;47.810;8.810;2023-05-01T19:44:16;12.30;99.90
4429;DHT22;2227;47.810;8.810;2023-05-01T19:46:43;12.50;99.90
4429;DHT22;2227;47.810;8.810;2023-05-01T19:49:10;12.70;99.90
4429;DHT22;2227;47.810;8.810;2023-05-01T19:51:37;12.70;99.90
4429;DHT22;2227;47.810;8.810;2023-05-01T19:54:04;12.70;99.90
4429;DHT22;2227;47.810;8.810;2023-05-01T19:56:31;12.80;99.90
4429;DHT22;2227;47.810;8.810;2023-05-01T19:58:58;12.80;99.90
4429;DHT22;2227;47.810;8.810;2023-05-01T20:01:24;12.80;99.90
4429;DHT22;2227;47.810;8.810;2023-05-01T20:03:51;12.90;99.90
4429;DHT22;2227;47.810;8.810;2023-05-01T20:06:18;13.00;99.90
4429;DHT22;2227;47.810;8.810;2023-05-01T20:08:45;13.00;99.90
4429;DHT22;2227;47.810;8.810;2023-05-01T20:11:12;12.80;99.90
4429;DHT22;2227;47.810;8.810;2023-05-01T20:13:39;12.70;99.90
4429;DHT22;2227;47.810;8.810;2023-05-01T20:16:06;12.80;99.90
4429;DHT22;2227;47.810;8.810;2023-05-01T20:18:35;12.80;99.90
4429;DHT22;2227;47.810;8.810;2023-05-01T20:21:01;12.90;99.90